aviador You're here:

KMTO Decoded Metar

MATTOON/CHARLEST in IL, USA
Report Time2018-01-22 19:53:00
UTC Time2018-01-22 20:02:52
Flight Rules mvfr MVFR
Wind180° at 17 Gusting to 27 kt
W.Decomp.*RWY 18: 17.0 kt HW 0.9 kt RCW
RWY 24: 9.3 kt HW 14.3 kt LCW
RWY 11: 5.0 kt HW 16.3 kt RCW
W.Rank180° ranks 2
Current wind is above 180° avg. (8.1)
Visibility9999 m
Phenomena:N/A
Clouds:Broken 020 Hf
Broken 028 Hf
Expected CloudBase > 1,200 ft AGL from Temp-Dew spread
Ceiling2,000 ft
Temp12°C (ISA -2)
Dew Point09°C (82% RH)
AAT5.7°C
QNH999 hPa
Density Alt1,145 ft
Elevation702 ft
Report Wrong Elevation
Raw Report
METAR KMTO 221953Z AUTO 18017G27KT 10SM BKN020 BKN028 12/09 A2949 RMK
AO2 PK WND 18027/1952 SLP986 T01220089=

Extra information for KMTO:More info

Metar Taf Metar & Taf Last 4 Metars F.Rules Stats Wind Profile Meteogram Temp Stats Airport Information Weather charts Add Link Nearby VenuesMetar ALERT Operation Metar Decoded Social comments

AIRNAV info for KMTO